Nova Era, Brazil
Current Conditions -  °F | °C
As of 3:00 PM on Friday 31 Oct 2014 (Local Time) from SBIP Reporting Station
Broken Clouds Broken Clouds  
Wind Chill: 81°   Ceiling: 6000
Heat Index: 82°   Visibility: 6mi
Dew Point: 64°   Wind: 3mph
Humidity: 58%   Direction: 10°N
Pressure: 29.94"   Gusts: NA
Location:  19.75°S, 43.04°W
Report Text: SBIP 311700Z 01003KT 9999 SCT030 FEW035TCU BKN060 27/18 Q1014
Loading
Personal Weather Stations






























Interactive Weather Map
Tropical Storm Tracking
New forecast layout! Learn more

10-Day Weather Forecast

Advertisements
Track Severe Weather on mobile